Time;durP1;ratioP1;P1;durP2;ratioP2;P2;SDS_P1;SDS_P2;PMS_P1;PMS_P2;Temp;Humidity;BMP_temperature;BMP_pressure;BME280_temperature;BME280_humidity;BME280_pressure;Samples;Min_cycle;Max_cycle;Signal;HPM_P1;HPM_P2
2023/12/16 00:00:28;;;;;;;;;;;18.80;62.30;;;;;;5059482;28;1389;-69
2023/12/16 00:02:54;;;;;;;;;;;18.80;62.30;;;;;;5062186;28;1481;-69
2023/12/16 00:05:20;;;;;;;;;;;18.80;62.30;;;;;;5059386;28;1344;-68
2023/12/16 00:07:45;;;;;;;;;;;18.80;62.30;;;;;;5062852;28;1258;-69
2023/12/16 00:10:11;;;;;;;;;;;18.80;62.30;;;;;;5058007;28;1299;-69
2023/12/16 00:12:36;;;;;;;;;;;18.80;62.40;;;;;;5060888;28;987;-70
2023/12/16 00:15:02;;;;;;;;;;;18.80;62.40;;;;;;5060781;28;1360;-70
2023/12/16 00:17:28;;;;;;;;;;;18.70;62.30;;;;;;5057719;28;1902;-69
2023/12/16 00:19:54;;;;;;;;;;;18.70;63.10;;;;;;5061411;28;1653;-69
2023/12/16 00:22:19;;;;;;;;;;;18.70;62.40;;;;;;5061646;28;1108;-70
2023/12/16 00:24:45;;;;;;;;;;;18.70;62.40;;;;;;5063017;28;1243;-69
2023/12/16 00:27:10;;;;;;;;;;;18.70;62.40;;;;;;5074865;28;1569;-70
2023/12/16 00:29:36;;;;;;;;;;;18.70;62.40;;;;;;5056551;28;1478;-68
2023/12/16 00:32:01;;;;;;;;;;;18.70;62.50;;;;;;5063761;28;1297;-68
2023/12/16 00:34:27;;;;;;;;;;;18.70;62.40;;;;;;5093708;28;1490;-68
2023/12/16 00:36:52;;;;;;;;;;;18.70;62.50;;;;;;5059657;28;1972;-69
2023/12/16 00:39:18;;;;;;;;;;;18.70;62.50;;;;;;5062960;28;1260;-69
2023/12/16 00:41:43;;;;;;;;;;;18.70;62.50;;;;;;5058230;28;1628;-70
2023/12/16 00:44:09;;;;;;;;;;;18.70;62.50;;;;;;5077483;28;1261;-70
2023/12/16 00:46:34;;;;;;;;;;;18.70;62.50;;;;;;5057189;28;1480;-69
2023/12/16 00:49:00;;;;;;;;;;;18.70;62.50;;;;;;5056399;28;1445;-70
2023/12/16 00:51:25;;;;;;;;;;;18.70;62.50;;;;;;5072845;28;1579;-69
2023/12/16 00:53:51;;;;;;;;;;;18.70;62.50;;;;;;5058480;28;1407;-69
2023/12/16 00:56:16;;;;;;;;;;;18.70;62.50;;;;;;5060384;28;1969;-69
2023/12/16 00:58:42;;;;;;;;;;;18.70;62.50;;;;;;5092612;28;1334;-69
2023/12/16 01:01:07;;;;;;;;;;;18.70;62.50;;;;;;5059567;28;1349;-69
2023/12/16 01:03:34;;;;;;;;;;;18.70;62.60;;;;;;5074324;28;1365;-70
2023/12/16 01:05:59;;;;;;;;;;;18.70;62.60;;;;;;5058921;28;1462;-71
2023/12/16 01:08:25;;;;;;;;;;;18.70;62.60;;;;;;5057739;28;1307;-69
2023/12/16 01:10:50;;;;;;;;;;;18.70;62.60;;;;;;5059684;28;1299;-68
2023/12/16 01:13:16;;;;;;;;;;;18.70;62.60;;;;;;5059495;28;1323;-69
2023/12/16 01:15:41;;;;;;;;;;;18.70;62.60;;;;;;5057067;28;2056;-69
2023/12/16 01:18:07;;;;;;;;;;;18.70;62.60;;;;;;5058841;28;1608;-69
2023/12/16 01:20:33;;;;;;;;;;;18.70;62.70;;;;;;5055568;28;1318;-69
2023/12/16 01:22:59;;;;;;;;;;;18.70;62.70;;;;;;5057753;28;1530;-70
2023/12/16 01:25:24;;;;;;;;;;;18.70;62.70;;;;;;5057950;28;1158;-70
2023/12/16 01:27:49;;;;;;;;;;;18.70;62.70;;;;;;5059535;28;1584;-69
2023/12/16 01:30:15;;;;;;;;;;;18.60;62.60;;;;;;5047280;28;1351;-70
2023/12/16 01:32:40;;;;;;;;;;;18.60;62.60;;;;;;5055878;28;1159;-69
2023/12/16 01:35:06;;;;;;;;;;;18.60;62.60;;;;;;5057449;28;874;-70
2023/12/16 01:37:31;;;;;;;;;;;18.60;62.70;;;;;;5057457;28;1975;-70
2023/12/16 01:39:59;;;;;;;;;;;18.60;62.70;;;;;;5057483;28;1347;-69
2023/12/16 01:42:24;;;;;;;;;;;18.60;62.70;;;;;;5090592;28;1449;-70
2023/12/16 01:44:50;;;;;;;;;;;18.60;62.70;;;;;;5092314;28;1500;-70
2023/12/16 01:47:17;;;;;;;;;;;18.60;62.70;;;;;;5060895;28;1327;-68
2023/12/16 01:49:44;;;;;;;;;;;18.60;62.70;;;;;;5058068;28;1303;-69
2023/12/16 01:52:09;;;;;;;;;;;18.60;62.70;;;;;;5056015;28;1407;-69
2023/12/16 01:54:35;;;;;;;;;;;18.60;62.70;;;;;;5091439;28;1267;-69
2023/12/16 01:57:03;;;;;;;;;;;18.60;62.80;;;;;;5060107;28;1957;-68
2023/12/16 01:59:28;;;;;;;;;;;18.60;62.70;;;;;;5086946;28;1233;-69
2023/12/16 02:01:54;;;;;;;;;;;18.60;62.80;;;;;;5057552;28;1547;-69
2023/12/16 02:04:19;;;;;;;;;;;18.60;62.70;;;;;;5090715;28;1441;-70
2023/12/16 02:06:45;;;;;;;;;;;18.60;62.80;;;;;;5055957;28;1519;-70
2023/12/16 02:09:13;;;;;;;;;;;18.60;62.80;;;;;;5042873;28;1391;-71
2023/12/16 02:11:38;;;;;;;;;;;18.60;62.80;;;;;;5056832;28;1375;-71
2023/12/16 02:14:04;;;;;;;;;;;18.60;62.80;;;;;;5059126;28;1333;-71
2023/12/16 02:16:29;;;;;;;;;;;18.60;62.80;;;;;;5061021;28;1969;-70
2023/12/16 02:18:54;;;;;;;;;;;18.60;62.90;;;;;;5056577;28;1459;-70
2023/12/16 02:21:20;;;;;;;;;;;18.60;62.80;;;;;;5058476;28;1709;-70
2023/12/16 02:23:45;;;;;;;;;;;18.60;62.80;;;;;;5058941;28;1372;-70
2023/12/16 02:26:11;;;;;;;;;;;18.60;62.80;;;;;;5059239;28;1433;-70
2023/12/16 02:28:37;;;;;;;;;;;18.60;62.90;;;;;;5059864;28;1479;-69
2023/12/16 02:31:03;;;;;;;;;;;18.60;62.90;;;;;;5089024;28;1450;-70
2023/12/16 02:33:28;;;;;;;;;;;18.60;62.80;;;;;;5088497;28;1519;-70
2023/12/16 02:35:53;;;;;;;;;;;18.60;62.90;;;;;;5059634;28;1901;-70
2023/12/16 02:38:19;;;;;;;;;;;18.60;62.90;;;;;;5077244;28;1278;-70
2023/12/16 02:40:44;;;;;;;;;;;18.60;62.90;;;;;;5058119;28;1461;-70
2023/12/16 02:43:10;;;;;;;;;;;18.60;62.90;;;;;;5059251;28;1500;-70
2023/12/16 02:45:35;;;;;;;;;;;18.60;62.90;;;;;;5057874;28;1270;-70
2023/12/16 02:48:01;;;;;;;;;;;18.60;62.90;;;;;;5060896;28;1440;-70
2023/12/16 02:50:26;;;;;;;;;;;18.60;62.90;;;;;;5056005;28;1537;-70
2023/12/16 02:52:52;;;;;;;;;;;18.60;63.00;;;;;;5056229;28;1550;-70
2023/12/16 02:55:18;;;;;;;;;;;18.60;62.90;;;;;;5055796;28;1914;-69
2023/12/16 02:57:44;;;;;;;;;;;18.60;62.90;;;;;;5057570;28;1619;-69
2023/12/16 03:00:10;;;;;;;;;;;18.50;62.90;;;;;;5055734;28;1624;-70
2023/12/16 03:02:36;;;;;;;;;;;18.50;62.90;;;;;;5057143;28;1584;-69
2023/12/16 03:05:01;;;;;;;;;;;18.60;63.00;;;;;;5063001;28;1141;-70
2023/12/16 03:07:27;;;;;;;;;;;18.50;62.90;;;;;;5092919;28;1543;-69
2023/12/16 03:09:52;;;;;;;;;;;18.50;62.90;;;;;;5064489;28;1382;-70
2023/12/16 03:12:18;;;;;;;;;;;18.50;63.00;;;;;;5061624;28;1504;-69
2023/12/16 03:14:43;;;;;;;;;;;18.50;63.00;;;;;;5059269;28;1343;-70
2023/12/16 03:17:09;;;;;;;;;;;18.50;63.00;;;;;;5060656;28;1909;-69
2023/12/16 03:19:34;;;;;;;;;;;18.50;63.00;;;;;;5062561;28;1366;-69
2023/12/16 03:22:00;;;;;;;;;;;18.50;63.00;;;;;;5096525;28;1793;-69
2023/12/16 03:24:25;;;;;;;;;;;18.50;63.00;;;;;;5061403;28;1268;-71
2023/12/16 03:26:50;;;;;;;;;;;18.50;63.00;;;;;;5058177;28;1364;-70
2023/12/16 03:29:16;;;;;;;;;;;18.50;63.00;;;;;;5062807;28;1295;-69
2023/12/16 03:31:41;;;;;;;;;;;18.50;63.00;;;;;;5060570;28;1301;-69
2023/12/16 03:34:07;;;;;;;;;;;18.50;63.00;;;;;;5068941;28;1356;-69
2023/12/16 03:36:32;;;;;;;;;;;18.50;63.00;;;;;;5059835;28;1965;-70
2023/12/16 03:38:58;;;;;;;;;;;18.50;63.00;;;;;;5060416;28;1348;-70
2023/12/16 03:41:23;;;;;;;;;;;18.50;63.10;;;;;;5061937;28;978;-69
2023/12/16 03:43:50;;;;;;;;;;;18.50;63.00;;;;;;5076826;28;1119;-69
2023/12/16 03:46:15;;;;;;;;;;;18.50;63.00;;;;;;5059631;28;1362;-70
2023/12/16 03:48:41;;;;;;;;;;;18.50;63.00;;;;;;5074591;28;1346;-69
2023/12/16 03:51:06;;;;;;;;;;;18.50;63.10;;;;;;5062084;28;1055;-70
2023/12/16 03:53:31;;;;;;;;;;;18.50;63.00;;;;;;5060948;28;1340;-69
2023/12/16 03:55:57;;;;;;;;;;;18.50;63.00;;;;;;5060988;28;1901;-69
2023/12/16 03:58:22;;;;;;;;;;;18.50;63.00;;;;;;5060621;28;1351;-70
2023/12/16 04:00:48;;;;;;;;;;;18.50;63.00;;;;;;5057080;28;1308;-70
2023/12/16 04:03:13;;;;;;;;;;;18.50;63.10;;;;;;5090570;28;1374;-70
2023/12/16 04:05:39;;;;;;;;;;;18.50;63.10;;;;;;5061993;28;1239;-69
2023/12/16 04:08:05;;;;;;;;;;;18.50;63.10;;;;;;5064488;28;1404;-70
2023/12/16 04:10:30;;;;;;;;;;;18.50;63.10;;;;;;5061319;28;1193;-69
2023/12/16 04:12:56;;;;;;;;;;;18.50;63.10;;;;;;5059475;28;923;-69
2023/12/16 04:15:21;;;;;;;;;;;18.50;63.10;;;;;;5057955;28;1971;-69
2023/12/16 04:17:47;;;;;;;;;;;18.50;63.10;;;;;;5078691;28;1308;-69
2023/12/16 04:20:12;;;;;;;;;;;18.50;63.10;;;;;;5092853;28;1546;-69
2023/12/16 04:22:38;;;;;;;;;;;18.50;63.10;;;;;;5075312;28;1418;-69
2023/12/16 04:25:09;;;;;;;;;;;18.50;63.20;;;;;;5059507;28;1364;-70
2023/12/16 04:27:34;;;;;;;;;;;18.50;63.10;;;;;;5063483;28;1584;-69
2023/12/16 04:30:00;;;;;;;;;;;18.50;63.10;;;;;;5064584;28;1671;-68
2023/12/16 04:32:25;;;;;;;;;;;18.50;63.10;;;;;;5061440;28;1292;-69
2023/12/16 04:34:51;;;;;;;;;;;18.50;63.10;;;;;;5061996;28;1147;-69
2023/12/16 04:37:16;;;;;;;;;;;18.50;63.20;;;;;;5092187;28;1980;-68
2023/12/16 04:39:42;;;;;;;;;;;18.50;63.20;;;;;;5061711;28;1276;-69
2023/12/16 04:42:09;;;;;;;;;;;18.50;63.20;;;;;;5061907;28;1341;-69
2023/12/16 04:44:36;;;;;;;;;;;18.40;63.10;;;;;;5062570;28;1484;-69
2023/12/16 04:47:02;;;;;;;;;;;18.50;63.20;;;;;;5092352;28;1585;-71
2023/12/16 04:49:27;;;;;;;;;;;18.50;63.20;;;;;;5058504;28;1303;-70
2023/12/16 04:51:53;;;;;;;;;;;18.50;63.20;;;;;;5057042;28;1399;-70
2023/12/16 04:54:18;;;;;;;;;;;18.40;63.20;;;;;;5059783;28;1547;-69
2023/12/16 04:56:44;;;;;;;;;;;18.40;63.10;;;;;;5056570;28;1905;-70
2023/12/16 04:59:09;;;;;;;;;;;18.40;63.10;;;;;;5059151;28;1438;-70
2023/12/16 05:01:35;;;;;;;;;;;18.40;63.20;;;;;;5058201;28;1255;-70
2023/12/16 05:04:00;;;;;;;;;;;18.40;63.10;;;;;;5059732;28;1251;-70
2023/12/16 05:06:25;;;;;;;;;;;18.40;63.20;;;;;;5057390;28;1378;-71
2023/12/16 05:08:51;;;;;;;;;;;18.40;63.10;;;;;;5059580;28;1369;-71
2023/12/16 05:11:16;;;;;;;;;;;18.50;63.20;;;;;;5056851;28;1555;-71
2023/12/16 05:13:42;;;;;;;;;;;18.50;63.00;;;;;;5057496;28;1524;-71
2023/12/16 05:16:08;;;;;;;;;;;18.60;63.10;;;;;;5089207;28;1911;-71
2023/12/16 05:18:33;;;;;;;;;;;18.70;63.10;;;;;;5090857;28;1296;-70
2023/12/16 05:20:58;;;;;;;;;;;18.80;63.00;;;;;;5091729;28;1308;-70
2023/12/16 05:23:24;;;;;;;;;;;18.90;62.60;;;;;;5058025;28;1446;-69
2023/12/16 05:25:49;;;;;;;;;;;19.00;62.20;;;;;;5059587;28;1237;-69
2023/12/16 05:28:15;;;;;;;;;;;19.20;61.80;;;;;;5061510;28;1055;-69
2023/12/16 05:30:40;;;;;;;;;;;19.30;61.40;;;;;;5060151;28;1255;-69
2023/12/16 05:33:06;;;;;;;;;;;19.50;61.10;;;;;;5058941;28;1510;-70
2023/12/16 05:35:31;;;;;;;;;;;19.60;60.70;;;;;;5059679;28;1898;-70
2023/12/16 05:37:57;;;;;;;;;;;19.70;60.40;;;;;;5060026;28;1727;-70
2023/12/16 05:40:22;;;;;;;;;;;19.90;60.00;;;;;;5091737;28;1327;-70
2023/12/16 05:42:48;;;;;;;;;;;20.00;59.80;;;;;;5059195;28;1360;-70
2023/12/16 05:45:13;;;;;;;;;;;20.10;59.60;;;;;;5087854;28;1470;-70
2023/12/16 05:47:39;;;;;;;;;;;20.20;59.40;;;;;;5058344;28;1234;-69
2023/12/16 05:50:05;;;;;;;;;;;20.30;59.10;;;;;;5061335;28;1252;-71
2023/12/16 05:52:30;;;;;;;;;;;20.40;59.00;;;;;;5076311;28;1509;-71
2023/12/16 05:54:56;;;;;;;;;;;20.50;58.70;;;;;;5091004;28;1387;-71
2023/12/16 05:57:21;;;;;;;;;;;20.50;58.50;;;;;;5056094;28;1898;-72
2023/12/16 05:59:47;;;;;;;;;;;20.60;58.40;;;;;;5057735;28;1304;-71
2023/12/16 06:02:12;;;;;;;;;;;20.60;58.20;;;;;;5058070;28;1028;-72
2023/12/16 06:04:38;;;;;;;;;;;20.70;58.10;;;;;;5057607;28;1478;-71
2023/12/16 06:07:03;;;;;;;;;;;20.80;58.00;;;;;;5060206;28;1921;-71
2023/12/16 06:09:29;;;;;;;;;;;20.80;57.80;;;;;;5093944;28;1375;-71
2023/12/16 06:11:55;;;;;;;;;;;20.90;57.80;;;;;;5088880;28;1383;-71
2023/12/16 06:14:21;;;;;;;;;;;20.90;57.70;;;;;;5089581;28;1730;-71
2023/12/16 06:16:46;;;;;;;;;;;20.90;57.60;;;;;;5059494;28;1985;-69
2023/12/16 06:19:12;;;;;;;;;;;21.00;57.60;;;;;;5058795;28;1446;-68
2023/12/16 06:21:37;;;;;;;;;;;21.00;57.40;;;;;;5061866;28;1465;-69
2023/12/16 06:24:04;;;;;;;;;;;21.10;57.40;;;;;;5061421;28;1690;-69
2023/12/16 06:26:29;;;;;;;;;;;21.10;57.30;;;;;;5056619;28;1249;-69
2023/12/16 06:28:55;;;;;;;;;;;21.10;57.20;;;;;;5061552;28;1298;-69
2023/12/16 06:31:20;;;;;;;;;;;21.20;57.30;;;;;;5089439;28;1518;-69
2023/12/16 06:33:46;;;;;;;;;;;21.20;57.20;;;;;;5058616;28;1245;-69
2023/12/16 06:36:11;;;;;;;;;;;21.20;57.10;;;;;;5060094;28;1942;-69
2023/12/16 06:38:37;;;;;;;;;;;21.20;57.10;;;;;;5058512;28;1381;-70
2023/12/16 06:41:03;;;;;;;;;;;21.20;57.00;;;;;;5057579;28;1682;-69
2023/12/16 06:43:28;;;;;;;;;;;21.20;57.00;;;;;;5090956;28;1337;-69
2023/12/16 06:45:54;;;;;;;;;;;21.30;57.00;;;;;;5055372;28;1389;-69
2023/12/16 06:48:20;;;;;;;;;;;21.30;57.00;;;;;;5057409;28;1530;-69
2023/12/16 06:50:45;;;;;;;;;;;21.20;56.90;;;;;;5059341;28;1146;-69
2023/12/16 06:53:11;;;;;;;;;;;21.20;56.50;;;;;;5056599;28;1271;-70
2023/12/16 06:55:37;;;;;;;;;;;21.20;55.80;;;;;;5058693;28;1965;-69
2023/12/16 06:58:02;;;;;;;;;;;21.10;55.80;;;;;;5057693;28;1288;-70
2023/12/16 07:00:28;;;;;;;;;;;21.20;55.80;;;;;;5056554;28;1358;-70
2023/12/16 07:02:53;;;;;;;;;;;21.20;55.90;;;;;;5059218;28;1855;-67
2023/12/16 07:05:19;;;;;;;;;;;21.20;56.10;;;;;;5056682;28;1874;-71
2023/12/16 07:07:44;;;;;;;;;;;21.20;56.10;;;;;;5060521;28;1005;-71
2023/12/16 07:10:10;;;;;;;;;;;21.20;56.20;;;;;;5059347;28;1299;-71
2023/12/16 07:12:35;;;;;;;;;;;21.20;56.20;;;;;;5055214;28;1152;-71
2023/12/16 07:15:01;;;;;;;;;;;21.20;56.40;;;;;;5090585;28;1483;-70
2023/12/16 07:17:26;;;;;;;;;;;21.20;56.40;;;;;;5088201;28;1902;-69
2023/12/16 07:19:52;;;;;;;;;;;21.20;56.40;;;;;;5056854;28;1351;-71
2023/12/16 07:22:17;;;;;;;;;;;21.20;56.50;;;;;;5060397;28;953;-70
2023/12/16 07:24:43;;;;;;;;;;;21.20;56.50;;;;;;5061084;28;1242;-69
2023/12/16 07:27:09;;;;;;;;;;;21.20;56.60;;;;;;5091347;28;1259;-71
2023/12/16 07:29:34;;;;;;;;;;;21.20;56.70;;;;;;5058452;28;1579;-70
2023/12/16 07:32:00;;;;;;;;;;;21.10;56.70;;;;;;5055837;28;1294;-71
2023/12/16 07:34:25;;;;;;;;;;;21.10;56.80;;;;;;5057126;28;1421;-71
2023/12/16 07:36:51;;;;;;;;;;;21.10;56.80;;;;;;5054758;28;1906;-69
2023/12/16 07:39:16;;;;;;;;;;;21.10;56.90;;;;;;5054796;28;1390;-70
2023/12/16 07:41:41;;;;;;;;;;;21.00;57.00;;;;;;5054108;28;1382;-72
2023/12/16 07:44:07;;;;;;;;;;;21.00;57.10;;;;;;5055206;28;1493;-71
2023/12/16 07:46:32;;;;;;;;;;;21.00;57.20;;;;;;5055136;28;1336;-71
2023/12/16 07:48:58;;;;;;;;;;;20.90;57.20;;;;;;5055255;28;1843;-69
2023/12/16 07:51:26;;;;;;;;;;;20.90;57.20;;;;;;5058831;28;1363;-71
2023/12/16 07:53:52;;;;;;;;;;;20.90;57.30;;;;;;5058243;28;1382;-70
2023/12/16 07:56:21;;;;;;;;;;;20.90;57.70;;;;;;5057921;28;1898;-70
2023/12/16 07:58:47;;;;;;;;;;;20.90;57.40;;;;;;5058920;28;1294;-69
2023/12/16 08:01:14;;;;;;;;;;;20.80;57.50;;;;;;5060060;28;1478;-69
2023/12/16 08:03:39;;;;;;;;;;;20.80;57.60;;;;;;5059522;28;2174;-70
2023/12/16 08:06:05;;;;;;;;;;;20.80;57.70;;;;;;5060486;28;1895;-70
2023/12/16 08:08:31;;;;;;;;;;;20.80;57.70;;;;;;5058020;28;2265;-70
2023/12/16 08:10:57;;;;;;;;;;;20.80;58.30;;;;;;5058832;28;1187;-70
2023/12/16 08:13:22;;;;;;;;;;;20.80;58.50;;;;;;5063178;28;1358;-70
2023/12/16 08:15:48;;;;;;;;;;;20.70;58.80;;;;;;5062203;28;1913;-71
2023/12/16 08:18:13;;;;;;;;;;;20.70;59.10;;;;;;5064180;28;1347;-71
2023/12/16 08:20:39;;;;;;;;;;;20.70;59.30;;;;;;5059892;28;2015;-71
2023/12/16 08:23:05;;;;;;;;;;;20.70;59.40;;;;;;5063757;28;1638;-70
2023/12/16 08:25:31;;;;;;;;;;;20.70;59.70;;;;;;5059353;28;1431;-71
2023/12/16 08:27:56;;;;;;;;;;;20.70;59.70;;;;;;5077056;28;1388;-71
2023/12/16 08:30:22;;;;;;;;;;;20.70;59.90;;;;;;5058931;28;1560;-70
2023/12/16 08:32:47;;;;;;;;;;;20.70;59.50;;;;;;5099428;28;1572;-69
2023/12/16 08:35:14;;;;;;;;;;;20.70;59.70;;;;;;5095344;28;1135;-70
2023/12/16 08:37:40;;;;;;;;;;;20.70;59.80;;;;;;5059288;28;1893;-69
2023/12/16 08:40:06;;;;;;;;;;;20.70;60.00;;;;;;5060093;28;1876;-69
2023/12/16 08:42:31;;;;;;;;;;;20.70;60.00;;;;;;5062412;28;1308;-70
2023/12/16 08:44:57;;;;;;;;;;;20.60;60.00;;;;;;5060296;28;1369;-69
2023/12/16 08:47:22;;;;;;;;;;;20.60;60.00;;;;;;5060562;28;1300;-69
2023/12/16 08:49:48;;;;;;;;;;;20.60;60.30;;;;;;5061030;28;1284;-69
2023/12/16 08:52:13;;;;;;;;;;;20.60;60.40;;;;;;5059578;28;1337;-69
2023/12/16 08:54:39;;;;;;;;;;;20.60;60.70;;;;;;5060268;28;1206;-70
2023/12/16 08:57:04;;;;;;;;;;;20.60;60.80;;;;;;5092094;28;1913;-70
2023/12/16 08:59:30;;;;;;;;;;;20.60;60.90;;;;;;5060295;28;1274;-69
2023/12/16 09:01:55;;;;;;;;;;;20.60;61.00;;;;;;5061831;28;1252;-70
2023/12/16 09:04:21;;;;;;;;;;;20.60;61.00;;;;;;5059885;28;1566;-70
2023/12/16 09:06:46;;;;;;;;;;;20.60;61.10;;;;;;5063367;28;1592;-69
2023/12/16 09:09:12;;;;;;;;;;;20.60;61.20;;;;;;5094848;28;1388;-69
2023/12/16 09:11:38;;;;;;;;;;;20.50;61.40;;;;;;5064450;28;1233;-69
2023/12/16 09:14:05;;;;;;;;;;;20.60;61.50;;;;;;5061474;28;1533;-70
2023/12/16 09:16:32;;;;;;;;;;;20.60;61.60;;;;;;5061530;28;1898;-69
2023/12/16 09:18:57;;;;;;;;;;;20.60;61.60;;;;;;5063004;28;1232;-70
2023/12/16 09:21:23;;;;;;;;;;;20.60;61.60;;;;;;5093013;28;1321;-69
2023/12/16 09:23:48;;;;;;;;;;;20.60;61.50;;;;;;5061959;28;1277;-69
2023/12/16 09:26:14;;;;;;;;;;;20.60;61.60;;;;;;5060580;28;1232;-69
2023/12/16 09:28:39;;;;;;;;;;;20.60;61.60;;;;;;5062136;28;1301;-70
2023/12/16 09:31:05;;;;;;;;;;;20.50;61.60;;;;;;5062192;28;1263;-70
2023/12/16 09:33:31;;;;;;;;;;;20.50;61.60;;;;;;5094906;28;895;-69
2023/12/16 09:35:56;;;;;;;;;;;20.50;61.70;;;;;;5061426;28;1942;-70
2023/12/16 09:38:22;;;;;;;;;;;20.50;61.70;;;;;;5076755;28;1309;-69
2023/12/16 09:40:47;;;;;;;;;;;20.50;61.80;;;;;;5060506;28;1241;-70
2023/12/16 09:43:19;;;;;;;;;;;20.50;62.00;;;;;;5057048;28;1160;-70
2023/12/16 09:45:44;;;;;;;;;;;20.50;61.90;;;;;;5059763;28;1417;-70
2023/12/16 09:48:10;;;;;;;;;;;20.50;62.10;;;;;;5057449;28;1372;-71
2023/12/16 09:50:35;;;;;;;;;;;20.50;62.10;;;;;;5088247;28;1494;-71
2023/12/16 09:53:01;;;;;;;;;;;20.50;62.00;;;;;;5059706;28;1366;-71
2023/12/16 09:55:26;;;;;;;;;;;20.60;62.20;;;;;;5058743;28;1866;-70
2023/12/16 09:57:52;;;;;;;;;;;20.60;62.30;;;;;;5058897;28;1905;-71
2023/12/16 10:00:18;;;;;;;;;;;20.60;62.10;;;;;;5056731;28;1288;-70
2023/12/16 10:02:47;;;;;;;;;;;20.50;62.10;;;;;;5055897;28;1254;-69
2023/12/16 10:05:13;;;;;;;;;;;20.50;62.10;;;;;;5064440;28;1375;-70
2023/12/16 10:07:39;;;;;;;;;;;20.50;62.10;;;;;;5076545;28;1321;-69
2023/12/16 10:10:04;;;;;;;;;;;20.50;62.20;;;;;;5063311;28;1369;-70
2023/12/16 10:12:36;;;;;;;;;;;20.50;62.20;;;;;;5061165;28;1216;-69
2023/12/16 10:15:02;;;;;;;;;;;20.50;62.20;;;;;;5061954;28;1323;-70
2023/12/16 10:17:28;;;;;;;;;;;20.50;62.20;;;;;;5058840;28;1927;-70
2023/12/16 10:19:53;;;;;;;;;;;20.50;62.20;;;;;;5056429;28;1272;-70
2023/12/16 10:22:19;;;;;;;;;;;20.40;62.20;;;;;;5058400;28;1226;-71
2023/12/16 10:24:44;;;;;;;;;;;20.40;62.20;;;;;;5057598;28;1512;-70
2023/12/16 10:27:10;;;;;;;;;;;20.50;62.30;;;;;;5059257;28;1443;-70
2023/12/16 10:29:37;;;;;;;;;;;20.40;62.30;;;;;;5089005;28;1524;-69
2023/12/16 10:32:02;;;;;;;;;;;20.50;62.30;;;;;;5059077;28;1339;-71
2023/12/16 10:34:29;;;;;;;;;;;20.50;62.30;;;;;;5059133;28;1309;-70
2023/12/16 10:37:07;;;;;;;;;;;20.50;62.10;;;;;;5054964;28;1906;-69
2023/12/16 10:39:33;;;;;;;;;;;20.60;62.10;;;;;;5056799;28;1606;-70
2023/12/16 10:41:58;;;;;;;;;;;20.60;61.90;;;;;;5074840;28;2153;-70
2023/12/16 10:44:24;;;;;;;;;;;20.60;61.90;;;;;;5054997;28;1860;-71
2023/12/16 10:46:51;;;;;;;;;;;20.60;62.00;;;;;;5056042;28;1481;-70
2023/12/16 10:49:16;;;;;;;;;;;20.60;62.00;;;;;;5056873;28;1463;-71
2023/12/16 10:51:43;;;;;;;;;;;20.60;62.20;;;;;;5090967;28;1421;-70
2023/12/16 10:54:21;;;;;;;;;;;20.60;62.20;;;;;;5056971;28;1660;-69
2023/12/16 10:56:49;;;;;;;;;;;20.60;62.30;;;;;;5055088;28;1973;-70
2023/12/16 10:59:18;;;;;;;;;;;20.50;62.30;;;;;;5058879;28;1554;-71
2023/12/16 11:01:46;;;;;;;;;;;20.50;62.60;;;;;;5087657;28;1342;-70
2023/12/16 11:04:19;;;;;;;;;;;20.50;62.70;;;;;;5060137;28;1342;-70
2023/12/16 11:06:54;;;;;;;;;;;20.60;62.90;;;;;;5089175;28;1988;-71
2023/12/16 11:09:20;;;;;;;;;;;20.50;63.00;;;;;;5056076;28;1370;-70
2023/12/16 11:11:45;;;;;;;;;;;20.50;63.20;;;;;;5088966;28;1455;-71
2023/12/16 11:14:10;;;;;;;;;;;20.50;63.40;;;;;;5090875;28;1273;-70
2023/12/16 11:16:54;;;;;;;;;;;20.50;63.50;;;;;;5055583;28;1909;-70
2023/12/16 11:19:20;;;;;;;;;;;20.50;63.60;;;;;;5058077;28;1311;-70
2023/12/16 11:21:46;;;;;;;;;;;20.50;63.90;;;;;;5088957;28;1398;-71
2023/12/16 11:24:11;;;;;;;;;;;20.50;64.10;;;;;;5088194;28;2208;-70
2023/12/16 11:26:37;;;;;;;;;;;20.40;64.20;;;;;;5092062;28;1178;-71
2023/12/16 11:29:03;;;;;;;;;;;20.40;64.30;;;;;;5076384;28;1476;-70
2023/12/16 11:31:29;;;;;;;;;;;20.40;64.50;;;;;;5062693;28;1319;-69
2023/12/16 11:33:54;;;;;;;;;;;20.40;64.80;;;;;;5096427;28;1520;-69
2023/12/16 11:36:40;;;;;;;;;;;20.40;65.00;;;;;;5062951;28;1969;-69
2023/12/16 11:39:05;;;;;;;;;;;20.40;65.20;;;;;;5061946;28;1371;-69
2023/12/16 11:41:37;;;;;;;;;;;20.40;65.30;;;;;;5059647;28;1407;-69
2023/12/16 11:44:03;;;;;;;;;;;20.40;65.40;;;;;;5064461;28;1524;-69
2023/12/16 11:46:35;;;;;;;;;;;20.40;65.50;;;;;;5063568;28;1258;-69
2023/12/16 11:49:02;;;;;;;;;;;20.40;65.40;;;;;;5052727;28;1491;-69
2023/12/16 11:51:27;;;;;;;;;;;20.40;65.40;;;;;;5078787;28;1615;-71
2023/12/16 11:53:53;;;;;;;;;;;20.40;65.30;;;;;;5093610;28;1300;-69
2023/12/16 11:56:19;;;;;;;;;;;20.40;65.20;;;;;;5062688;28;1946;-69
2023/12/16 11:58:45;;;;;;;;;;;20.40;65.10;;;;;;5060529;28;1290;-70
2023/12/16 12:01:10;;;;;;;;;;;20.40;65.60;;;;;;5062130;28;1590;-69
2023/12/16 12:03:36;;;;;;;;;;;20.40;65.60;;;;;;5063995;28;1487;-70
2023/12/16 12:06:03;;;;;;;;;;;20.40;65.60;;;;;;5063500;28;1231;-69
2023/12/16 12:08:28;;;;;;;;;;;20.40;65.60;;;;;;5094296;28;1426;-70
2023/12/16 12:10:54;;;;;;;;;;;20.30;65.40;;;;;;5082680;28;1259;-69
2023/12/16 12:13:19;;;;;;;;;;;20.30;65.40;;;;;;5093263;28;1149;-69
2023/12/16 12:15:45;;;;;;;;;;;20.40;65.40;;;;;;5062838;28;1918;-69
2023/12/16 12:18:10;;;;;;;;;;;20.30;65.50;;;;;;5061799;28;1919;-69
2023/12/16 12:20:36;;;;;;;;;;;20.30;65.60;;;;;;5060234;28;1441;-69
2023/12/16 12:23:01;;;;;;;;;;;20.30;65.60;;;;;;5094768;28;1427;-69
2023/12/16 12:25:27;;;;;;;;;;;20.30;65.50;;;;;;5060330;28;1786;-69
2023/12/16 12:27:52;;;;;;;;;;;20.30;65.50;;;;;;5063560;28;1314;-69
2023/12/16 12:30:18;;;;;;;;;;;20.30;65.40;;;;;;5061459;28;1435;-69
2023/12/16 12:32:44;;;;;;;;;;;20.30;65.50;;;;;;5062103;28;1236;-69
2023/12/16 12:35:11;;;;;;;;;;;20.30;65.40;;;;;;5060481;28;1329;-69
2023/12/16 12:37:37;;;;;;;;;;;20.30;65.40;;;;;;5046633;28;5589;-69
2023/12/16 12:40:14;;;;;;;;;;;20.30;65.60;;;;;;5092685;28;1891;-69
2023/12/16 12:42:45;;;;;;;;;;;20.30;65.70;;;;;;5058432;28;1307;-70
2023/12/16 12:45:22;;;;;;;;;;;20.30;65.70;;;;;;5057139;28;1433;-69
2023/12/16 12:47:48;;;;;;;;;;;20.30;65.70;;;;;;5060018;28;950;-70
2023/12/16 12:50:23;;;;;;;;;;;20.30;65.60;;;;;;5066002;28;1425;-69
2023/12/16 12:52:48;;;;;;;;;;;20.30;65.60;;;;;;5069546;28;1321;-69
2023/12/16 12:55:14;;;;;;;;;;;20.30;65.60;;;;;;5074067;28;1042;-69
2023/12/16 12:57:40;;;;;;;;;;;20.30;66.40;;;;;;5095453;28;1969;-70
2023/12/16 13:00:07;;;;;;;;;;;20.30;65.70;;;;;;5058298;28;1195;-70
2023/12/16 13:02:32;;;;;;;;;;;20.20;65.80;;;;;;5056621;28;2007;-69
2023/12/16 13:04:58;;;;;;;;;;;20.30;66.20;;;;;;5061807;28;1455;-69
2023/12/16 13:07:23;;;;;;;;;;;20.30;62.60;;;;;;5058802;28;1239;-69
2023/12/16 13:09:49;;;;;;;;;;;20.20;60.00;;;;;;5095722;28;1965;-70
2023/12/16 13:12:14;;;;;;;;;;;20.20;59.10;;;;;;5061727;28;1234;-70
2023/12/16 13:14:40;;;;;;;;;;;20.10;58.30;;;;;;5060386;28;2181;-69
2023/12/16 13:17:06;;;;;;;;;;;20.00;57.80;;;;;;5066429;28;1969;-70
2023/12/16 13:19:31;;;;;;;;;;;20.00;57.40;;;;;;5061085;28;1316;-68
2023/12/16 13:21:56;;;;;;;;;;;20.00;57.30;;;;;;5066648;28;876;-70
2023/12/16 13:24:22;;;;;;;;;;;19.90;57.00;;;;;;5046079;28;4020;-69
2023/12/16 13:26:47;;;;;;;;;;;19.80;57.00;;;;;;5070310;28;895;-70
2023/12/16 13:29:13;;;;;;;;;;;19.80;56.80;;;;;;5062922;28;2036;-69
2023/12/16 13:31:38;;;;;;;;;;;19.70;56.60;;;;;;5065172;28;1247;-70
2023/12/16 13:34:04;;;;;;;;;;;19.70;56.60;;;;;;5066351;28;998;-71
2023/12/16 13:36:29;;;;;;;;;;;19.70;56.50;;;;;;5058435;28;1961;-69
2023/12/16 13:38:55;;;;;;;;;;;19.70;56.50;;;;;;5072808;28;1276;-69
2023/12/16 13:41:20;;;;;;;;;;;19.60;56.40;;;;;;5062965;28;1013;-70
2023/12/16 13:43:49;;;;;;;;;;;19.60;56.00;;;;;;5103252;28;1295;-69
2023/12/16 13:46:14;;;;;;;;;;;19.60;55.90;;;;;;5067254;28;1237;-69
2023/12/16 13:48:40;;;;;;;;;;;19.60;55.70;;;;;;5085772;28;1169;-69
2023/12/16 13:51:05;;;;;;;;;;;19.60;55.70;;;;;;5064690;28;958;-70
2023/12/16 13:53:30;;;;;;;;;;;19.50;55.60;;;;;;5069213;28;1491;-70
2023/12/16 13:55:56;;;;;;;;;;;19.50;55.50;;;;;;5071017;28;1959;-69
2023/12/16 13:58:22;;;;;;;;;;;19.50;55.40;;;;;;5073403;28;1339;-69
2023/12/16 14:00:48;;;;;;;;;;;19.50;55.30;;;;;;5066044;28;1472;-70
2023/12/16 14:03:13;;;;;;;;;;;19.50;55.30;;;;;;5058771;28;1369;-71
2023/12/16 14:05:38;;;;;;;;;;;19.50;55.10;;;;;;5059356;28;1520;-71
2023/12/16 14:08:04;;;;;;;;;;;19.50;55.00;;;;;;5054537;28;1412;-70
2023/12/16 14:10:29;;;;;;;;;;;19.50;55.00;;;;;;5055895;28;1854;-70
2023/12/16 14:12:55;;;;;;;;;;;19.50;54.90;;;;;;5058241;28;1283;-71
2023/12/16 14:15:20;;;;;;;;;;;19.50;54.90;;;;;;5056022;28;1360;-70
2023/12/16 14:17:46;;;;;;;;;;;19.50;55.00;;;;;;5059606;28;1968;-71
2023/12/16 14:20:11;;;;;;;;;;;19.40;55.90;;;;;;5090437;28;1787;-70
2023/12/16 14:22:37;;;;;;;;;;;19.50;55.60;;;;;;5058545;28;1366;-71